createdAt,value
2022-12-25T00:01:24.703Z,4.23
2022-12-25T00:03:56.006Z,4.00
2022-12-25T00:06:34.105Z,3.87
2022-12-25T00:09:10.556Z,4.50
2022-12-25T00:11:41.467Z,3.97
2022-12-25T00:14:09.012Z,4.40
2022-12-25T00:16:36.269Z,4.17
2022-12-25T00:19:03.788Z,4.27
2022-12-25T00:21:34.396Z,4.20
2022-12-25T00:24:04.230Z,4.10
2022-12-25T00:26:35.710Z,4.20
2022-12-25T00:29:11.140Z,3.50
2022-12-25T00:31:41.770Z,4.43
2022-12-25T00:34:14.014Z,4.77
2022-12-25T00:36:50.321Z,4.07
2022-12-25T00:39:24.391Z,4.50
2022-12-25T00:42:14.325Z,4.67
2022-12-25T00:44:42.079Z,4.07
2022-12-25T00:47:09.399Z,3.93
2022-12-25T00:49:36.830Z,3.70
2022-12-25T00:52:04.241Z,3.97
2022-12-25T00:54:31.876Z,4.00
2022-12-25T00:57:15.436Z,3.87
2022-12-25T00:59:49.565Z,4.30
2022-12-25T01:02:23.704Z,4.60
2022-12-25T01:04:56.305Z,4.80
2022-12-25T01:07:26.524Z,4.37
2022-12-25T01:10:14.392Z,4.20
2022-12-25T01:12:53.037Z,3.47
2022-12-25T01:15:20.884Z,4.20
2022-12-25T01:17:48.087Z,3.67
2022-12-25T01:20:36.269Z,3.77
2022-12-25T01:23:06.153Z,4.30
2022-12-25T01:25:36.175Z,3.57
2022-12-25T01:28:03.644Z,4.03
2022-12-25T01:30:31.818Z,3.93
2022-12-25T01:32:59.222Z,4.40
2022-12-25T01:35:26.470Z,4.13
2022-12-25T01:37:53.869Z,4.40
2022-12-25T01:40:21.165Z,4.90
2022-12-25T01:42:48.466Z,4.00
2022-12-25T01:45:52.922Z,4.07
2022-12-25T01:48:42.296Z,4.13
2022-12-25T01:51:47.980Z,3.93
2022-12-25T01:54:22.302Z,4.37
2022-12-25T01:56:56.492Z,4.57
2022-12-25T01:59:27.694Z,4.70
2022-12-25T02:01:55.881Z,3.80
2022-12-25T02:04:39.949Z,4.07
2022-12-25T02:07:21.208Z,4.57
2022-12-25T02:09:49.283Z,4.00
2022-12-25T02:12:28.053Z,4.30
2022-12-25T02:15:05.285Z,4.13
2022-12-25T02:18:19.519Z,4.20
2022-12-25T02:21:17.295Z,4.40
2022-12-25T02:24:11.681Z,4.63
2022-12-25T02:27:00.742Z,4.70
2022-12-25T02:30:09.386Z,4.40
2022-12-25T02:32:50.308Z,4.03
2022-12-25T02:35:31.327Z,4.37
2022-12-25T02:38:20.388Z,4.20
2022-12-25T02:41:00.692Z,4.57
2022-12-25T02:43:58.204Z,3.83
2022-12-25T02:46:46.787Z,5.10
2022-12-25T02:49:40.536Z,4.37
2022-12-25T02:52:35.522Z,4.03
2022-12-25T02:55:31.003Z,4.30
2022-12-25T02:58:24.607Z,4.17
2022-12-25T03:01:27.147Z,4.37
2022-12-25T03:04:23.163Z,4.33
2022-12-25T03:07:11.372Z,4.30
2022-12-25T03:10:04.879Z,3.83
2022-12-25T03:12:52.026Z,4.23
2022-12-25T03:15:38.980Z,4.20
2022-12-25T03:18:14.427Z,4.90
2022-12-25T03:21:01.128Z,3.90
2022-12-25T03:23:55.194Z,3.73
2022-12-25T03:26:41.916Z,4.07
2022-12-25T03:29:09.682Z,4.07
2022-12-25T03:32:07.252Z,4.60
2022-12-25T03:35:12.044Z,4.20
2022-12-25T03:38:22.838Z,3.70
2022-12-25T03:41:32.979Z,4.20
2022-12-25T03:44:45.054Z,3.63
2022-12-25T03:47:35.298Z,3.87
2022-12-25T03:54:34.501Z,3.93
2022-12-25T03:57:21.258Z,4.00
2022-12-25T04:00:07.287Z,4.17
2022-12-25T04:02:56.933Z,4.47
2022-12-25T04:05:43.265Z,3.93
2022-12-25T04:08:29.044Z,4.23
2022-12-25T04:11:14.950Z,3.70
2022-12-25T04:14:01.018Z,3.90
2022-12-25T04:16:46.662Z,3.80
2022-12-25T04:19:32.644Z,3.73
2022-12-25T04:22:18.671Z,3.57
2022-12-25T04:25:04.626Z,3.43
2022-12-25T04:27:50.485Z,3.30
2022-12-25T04:30:36.055Z,3.30
2022-12-25T04:33:21.987Z,2.90
2022-12-25T04:36:09.049Z,3.40
2022-12-25T04:38:37.278Z,3.10
2022-12-25T04:41:05.303Z,2.67
2022-12-25T04:43:33.136Z,2.97
2022-12-25T04:46:02.918Z,2.50
2022-12-25T04:48:37.109Z,2.73
2022-12-25T04:51:20.557Z,2.83
2022-12-25T04:55:03.321Z,3.10
2022-12-25T04:57:30.911Z,2.80
2022-12-25T04:59:58.656Z,2.80
2022-12-25T05:02:26.082Z,2.87
2022-12-25T05:04:56.783Z,3.23
2022-12-25T05:07:24.379Z,3.47
2022-12-25T05:09:51.664Z,3.33
2022-12-25T05:12:19.156Z,3.73
2022-12-25T05:14:46.604Z,3.23
2022-12-25T05:17:17.090Z,3.17
2022-12-25T05:19:47.065Z,3.20
2022-12-25T05:22:14.650Z,3.07
2022-12-25T05:24:41.878Z,3.50
2022-12-25T05:27:09.231Z,3.00
2022-12-25T05:29:36.392Z,3.33
2022-12-25T05:32:05.141Z,3.13
2022-12-25T05:34:32.529Z,3.10
2022-12-25T05:37:00.052Z,2.87
2022-12-25T05:39:27.406Z,3.33
2022-12-25T05:41:55.356Z,2.97
2022-12-25T05:44:23.016Z,3.27
2022-12-25T05:46:50.494Z,3.43
2022-12-25T05:49:19.316Z,3.17
2022-12-25T05:51:46.752Z,2.97
2022-12-25T05:54:14.494Z,3.00
2022-12-25T05:56:41.684Z,3.30
2022-12-25T05:59:08.988Z,3.40
2022-12-25T06:01:36.326Z,2.97
2022-12-25T06:04:10.212Z,3.17
2022-12-25T06:06:39.903Z,2.83
2022-12-25T06:09:07.392Z,3.07
2022-12-25T06:11:35.004Z,2.63
2022-12-25T06:14:02.421Z,3.17
2022-12-25T06:16:37.209Z,2.90
2022-12-25T06:19:08.808Z,2.90
2022-12-25T06:21:38.776Z,3.13
2022-12-25T06:24:06.863Z,2.77
2022-12-25T06:26:34.510Z,2.90
2022-12-25T06:29:02.117Z,2.67
2022-12-25T06:31:29.534Z,2.70
2022-12-25T06:33:57.177Z,2.50
2022-12-25T06:36:28.025Z,2.80
2022-12-25T06:38:56.152Z,2.97
2022-12-25T06:41:27.502Z,3.03
2022-12-25T06:43:58.539Z,2.97
2022-12-25T06:46:29.328Z,3.20
2022-12-25T06:49:00.765Z,3.00
2022-12-25T06:51:31.768Z,2.70
2022-12-25T06:54:06.052Z,2.57
2022-12-25T06:56:34.886Z,2.57
2022-12-25T06:59:08.904Z,2.63
2022-12-25T07:01:45.494Z,2.83
2022-12-25T07:04:41.414Z,2.77
2022-12-25T07:07:09.963Z,2.60
2022-12-25T07:09:39.348Z,2.90
2022-12-25T07:12:26.261Z,2.73
2022-12-25T07:14:56.068Z,2.50
2022-12-25T07:17:26.914Z,2.80
2022-12-25T07:19:54.649Z,2.60
2022-12-25T07:22:21.999Z,2.17
2022-12-25T07:24:49.267Z,2.27
2022-12-25T07:27:16.574Z,2.60
2022-12-25T07:29:43.847Z,2.07
2022-12-25T07:32:12.328Z,1.97
2022-12-25T07:34:40.243Z,2.00
2022-12-25T07:37:08.905Z,2.50
2022-12-25T07:39:41.269Z,2.00
2022-12-25T07:42:19.287Z,2.67
2022-12-25T07:44:56.714Z,2.30
2022-12-25T07:47:28.839Z,2.27
2022-12-25T07:50:01.656Z,2.47
2022-12-25T07:52:31.432Z,2.57
2022-12-25T07:55:08.750Z,2.27
2022-12-25T07:57:49.359Z,2.20
2022-12-25T08:00:33.320Z,3.00
2022-12-25T08:03:18.529Z,2.40
2022-12-25T08:06:00.195Z,2.67
2022-12-25T08:08:27.614Z,2.40
2022-12-25T08:10:55.084Z,2.10
2022-12-25T08:13:22.691Z,2.60
2022-12-25T08:15:59.389Z,2.37
2022-12-25T08:18:45.902Z,2.03
2022-12-25T08:21:15.635Z,2.00
2022-12-25T08:23:45.759Z,2.13
2022-12-25T08:26:20.403Z,2.27
2022-12-25T08:28:49.230Z,2.20
2022-12-25T08:31:27.820Z,2.00
2022-12-25T08:33:58.297Z,1.93
2022-12-25T08:36:27.382Z,2.37
2022-12-25T08:39:02.051Z,1.73
2022-12-25T08:41:31.535Z,4.70
2022-12-25T08:43:59.305Z,2.60
2022-12-25T08:46:26.940Z,2.47
2022-12-25T08:48:55.234Z,2.43
2022-12-25T08:51:25.348Z,2.20
2022-12-25T08:54:00.824Z,2.40
2022-12-25T08:56:35.731Z,2.33
2022-12-25T08:59:43.717Z,2.13
2022-12-25T09:02:23.306Z,2.07
2022-12-25T09:04:51.058Z,2.00
2022-12-25T09:07:18.522Z,2.30
2022-12-25T09:09:47.018Z,1.90
2022-12-25T09:12:14.468Z,2.10
2022-12-25T09:14:41.782Z,2.17
2022-12-25T09:17:09.122Z,2.30
2022-12-25T09:19:36.647Z,2.37
2022-12-25T09:22:04.532Z,2.37
2022-12-25T09:24:31.938Z,2.50
2022-12-25T09:26:59.404Z,2.53
2022-12-25T09:29:27.026Z,2.60
2022-12-25T09:31:54.265Z,2.60
2022-12-25T09:34:21.406Z,2.50
2022-12-25T09:36:48.608Z,2.73
2022-12-25T09:39:16.121Z,2.20
2022-12-25T09:42:02.535Z,2.50
2022-12-25T09:44:39.102Z,2.50
2022-12-25T09:50:23.056Z,2.73
2022-12-25T09:53:13.192Z,2.60
2022-12-25T09:56:00.996Z,2.30
2022-12-25T09:58:32.628Z,2.40
2022-12-25T10:01:34.684Z,2.80
2022-12-25T10:04:04.780Z,2.60
2022-12-25T10:06:47.132Z,2.47
2022-12-25T10:09:58.435Z,2.73
2022-12-25T10:13:00.193Z,2.70
2022-12-25T10:15:52.255Z,2.80
2022-12-25T10:18:52.574Z,2.90
2022-12-25T10:21:22.334Z,3.07
2022-12-25T10:23:58.752Z,2.60
2022-12-25T10:26:30.056Z,2.60
2022-12-25T10:29:21.724Z,2.63
2022-12-25T10:31:54.030Z,2.73
2022-12-25T10:34:22.481Z,2.77
2022-12-25T10:36:51.528Z,2.87
2022-12-25T10:39:23.650Z,2.80
2022-12-25T10:42:37.717Z,2.80
2022-12-25T10:45:11.524Z,2.90
2022-12-25T10:47:44.731Z,2.93
2022-12-25T10:50:25.817Z,3.07
2022-12-25T10:53:05.050Z,3.40
2022-12-25T10:55:34.080Z,3.77
2022-12-25T10:58:02.672Z,3.30
2022-12-25T11:00:32.959Z,3.70
2022-12-25T11:03:01.179Z,2.87
2022-12-25T11:06:08.406Z,3.10
2022-12-25T11:08:36.407Z,3.53
2022-12-25T11:11:06.761Z,3.60
2022-12-25T11:13:50.263Z,3.47
2022-12-25T11:16:39.039Z,3.50
2022-12-25T11:19:28.563Z,3.90
2022-12-25T11:22:06.471Z,4.07
2022-12-25T11:24:35.606Z,3.93
2022-12-25T11:27:09.499Z,4.13
2022-12-25T11:29:53.027Z,4.73
2022-12-25T11:32:28.813Z,5.40
2022-12-25T11:34:58.298Z,5.13
2022-12-25T11:37:41.146Z,5.57
2022-12-25T11:40:22.104Z,5.00
2022-12-25T11:43:02.522Z,5.40
2022-12-25T11:46:01.545Z,5.30
2022-12-25T11:48:36.756Z,5.70
2022-12-25T11:51:07.917Z,4.93
2022-12-25T11:53:49.440Z,4.90
2022-12-25T11:56:23.698Z,5.30
2022-12-25T11:58:58.380Z,4.57
2022-12-25T12:01:44.310Z,5.10
2022-12-25T12:04:42.745Z,5.07
2022-12-25T12:07:27.744Z,4.60
2022-12-25T12:10:14.065Z,5.40
2022-12-25T12:12:56.603Z,5.40
2022-12-25T12:15:43.681Z,4.77
2022-12-25T12:18:27.656Z,5.87
2022-12-25T12:21:26.704Z,5.80
2022-12-25T12:24:13.765Z,5.60
2022-12-25T12:26:46.447Z,5.50
2022-12-25T12:29:33.276Z,5.17
2022-12-25T12:32:21.117Z,5.70
2022-12-25T12:34:52.271Z,5.13
2022-12-25T12:37:35.776Z,5.70
2022-12-25T12:40:05.601Z,5.90
2022-12-25T12:42:45.413Z,6.17
2022-12-25T12:45:27.007Z,6.07
2022-12-25T12:47:55.025Z,6.03
2022-12-25T12:50:42.263Z,6.50
2022-12-25T12:53:24.613Z,6.70
2022-12-25T12:55:56.139Z,7.17
2022-12-25T12:58:35.507Z,7.33
2022-12-25T13:01:14.741Z,7.40
2022-12-25T13:04:18.204Z,6.33
2022-12-25T13:07:11.674Z,6.97
2022-12-25T13:10:00.432Z,7.13
2022-12-25T13:12:28.318Z,7.40
2022-12-25T13:14:56.245Z,7.27
2022-12-25T13:17:26.426Z,7.03
2022-12-25T13:20:01.348Z,6.93
2022-12-25T13:22:36.187Z,6.40
2022-12-25T13:25:16.837Z,7.10
2022-12-25T13:27:44.062Z,7.13
2022-12-25T13:31:07.895Z,7.33
2022-12-25T13:33:38.993Z,6.77
2022-12-25T13:36:12.887Z,6.00
2022-12-25T13:38:50.863Z,7.40
2022-12-25T13:41:44.201Z,7.13
2022-12-25T13:44:27.798Z,10.83
2022-12-25T13:46:55.247Z,9.47
2022-12-25T13:49:25.272Z,10.00
2022-12-25T13:51:52.732Z,10.20
2022-12-25T13:54:20.497Z,11.57
2022-12-25T13:56:55.784Z,9.97
2022-12-25T13:59:26.197Z,9.00
2022-12-25T14:01:54.661Z,8.93
2022-12-25T14:04:24.964Z,9.00
2022-12-25T14:06:53.252Z,8.97
2022-12-25T14:09:21.193Z,9.03
2022-12-25T14:11:55.041Z,9.03
2022-12-25T14:14:26.042Z,8.40
2022-12-25T14:16:59.462Z,8.67
2022-12-25T14:19:33.579Z,9.10
2022-12-25T14:22:19.165Z,8.53
2022-12-25T14:24:47.259Z,8.87
2022-12-25T14:27:32.836Z,8.27
2022-12-25T14:30:01.222Z,9.10
2022-12-25T14:32:38.498Z,9.43
2022-12-25T14:35:06.395Z,9.00
2022-12-25T14:37:37.720Z,8.73
2022-12-25T14:40:22.646Z,8.57
2022-12-25T14:43:01.077Z,9.77
2022-12-25T14:45:40.909Z,9.87
2022-12-25T14:48:27.873Z,8.93
2022-12-25T14:51:17.423Z,8.60
2022-12-25T14:53:56.432Z,9.37
2022-12-25T14:56:28.422Z,9.77
2022-12-25T14:59:00.426Z,10.03
2022-12-25T15:01:37.139Z,9.87
2022-12-25T15:04:10.432Z,9.87
2022-12-25T15:07:07.626Z,10.00
2022-12-25T15:09:36.216Z,10.53
2022-12-25T15:12:04.224Z,9.40
2022-12-25T15:14:31.932Z,10.87
2022-12-25T15:17:04.674Z,10.90
2022-12-25T15:19:38.670Z,11.17
2022-12-25T15:22:07.235Z,10.80
2022-12-25T15:24:34.507Z,10.87
2022-12-25T15:27:01.883Z,11.17
2022-12-25T15:30:07.836Z,10.87
2022-12-25T15:32:23.940Z,10.47
2022-12-25T15:34:51.628Z,11.17
2022-12-25T15:37:19.399Z,11.47
2022-12-25T15:39:47.494Z,11.87
2022-12-25T15:42:23.111Z,12.00
2022-12-25T15:44:51.800Z,12.17
2022-12-25T15:47:23.187Z,11.53
2022-12-25T15:49:50.824Z,12.10
2022-12-25T15:52:18.696Z,11.40
2022-12-25T15:54:49.581Z,10.93
2022-12-25T15:57:22.337Z,12.10
2022-12-25T15:59:49.751Z,13.20
2022-12-25T16:02:22.335Z,13.47
2022-12-25T16:04:51.307Z,13.63
2022-12-25T16:07:23.648Z,13.53
2022-12-25T16:09:51.957Z,12.07
2022-12-25T16:12:20.130Z,11.00
2022-12-25T16:14:48.407Z,12.57
2022-12-25T16:17:16.308Z,12.90
2022-12-25T16:19:45.030Z,12.73
2022-12-25T16:22:25.806Z,13.47
2022-12-25T16:24:56.586Z,11.90
2022-12-25T16:27:23.904Z,14.27
2022-12-25T16:29:51.236Z,12.33
2022-12-25T16:32:20.185Z,12.43
2022-12-25T16:34:49.817Z,12.30
2022-12-25T16:37:25.405Z,12.37
2022-12-25T16:39:52.688Z,11.23
2022-12-25T16:42:20.212Z,12.20
2022-12-25T16:44:47.701Z,13.30
2022-12-25T16:47:15.075Z,11.97
2022-12-25T16:49:42.607Z,11.67
2022-12-25T16:52:51.496Z,12.20
2022-12-25T16:55:18.942Z,12.20
2022-12-25T16:58:06.080Z,14.70
2022-12-25T17:00:33.698Z,13.27
2022-12-25T17:03:01.932Z,13.13
2022-12-25T17:06:46.548Z,13.40
2022-12-25T17:09:13.667Z,14.83
2022-12-25T17:11:41.124Z,14.60
2022-12-25T17:14:08.460Z,13.93
2022-12-25T17:16:38.222Z,14.97
2022-12-25T17:19:18.923Z,15.43
2022-12-25T17:21:49.807Z,15.27
2022-12-25T17:24:18.262Z,15.67
2022-12-25T17:26:45.654Z,13.90
2022-12-25T17:29:18.714Z,15.70
2022-12-25T17:31:49.417Z,15.60
2022-12-25T17:34:16.864Z,15.80
2022-12-25T17:37:03.237Z,16.30
2022-12-25T17:39:30.891Z,16.00
2022-12-25T17:41:59.554Z,15.53
2022-12-25T17:44:27.623Z,14.13
2022-12-25T17:46:54.956Z,16.10
2022-12-25T17:49:23.092Z,15.67
2022-12-25T17:51:50.775Z,14.70
2022-12-25T17:54:18.157Z,12.47
2022-12-25T17:56:45.361Z,13.97
2022-12-25T17:59:18.613Z,14.77
2022-12-25T18:01:47.305Z,16.27
2022-12-25T18:04:16.120Z,14.13
2022-12-25T18:06:43.430Z,14.70
2022-12-25T18:09:12.886Z,14.20
2022-12-25T18:11:49.277Z,14.47
2022-12-25T18:14:19.788Z,13.93
2022-12-25T18:16:48.266Z,14.23
2022-12-25T18:19:18.654Z,13.30
2022-12-25T18:21:45.918Z,14.00
2022-12-25T18:24:15.377Z,12.40
2022-12-25T18:26:42.671Z,12.37
2022-12-25T18:29:10.150Z,11.80
2022-12-25T18:31:37.686Z,10.57
2022-12-25T18:34:05.162Z,11.23
2022-12-25T18:36:32.717Z,11.13
2022-12-25T18:39:00.512Z,10.53
2022-12-25T18:41:29.028Z,11.40
2022-12-25T18:43:57.277Z,10.43
2022-12-25T18:46:27.264Z,11.27
2022-12-25T18:48:58.282Z,11.20
2022-12-25T18:51:34.899Z,11.70
2022-12-25T18:54:04.476Z,12.50
2022-12-25T18:56:31.659Z,11.77
2022-12-25T18:59:02.457Z,10.77
2022-12-25T19:01:33.058Z,12.13
2022-12-25T19:04:05.087Z,9.77
2022-12-25T19:06:33.865Z,9.37
2022-12-25T19:09:05.855Z,8.70
2022-12-25T19:11:37.803Z,7.23
2022-12-25T19:14:11.113Z,7.27
2022-12-25T19:16:39.032Z,7.50
2022-12-25T19:19:06.307Z,6.73
2022-12-25T19:21:33.609Z,7.13
2022-12-25T19:24:01.417Z,6.73
2022-12-25T19:26:28.853Z,7.43
2022-12-25T19:28:56.156Z,7.20
2022-12-25T19:31:23.651Z,6.87
2022-12-25T19:33:51.482Z,7.60
2022-12-25T19:36:19.029Z,6.67
2022-12-25T19:38:46.580Z,6.70
2022-12-25T19:41:18.513Z,6.73
2022-12-25T19:43:50.502Z,7.13
2022-12-25T19:46:26.042Z,7.10
2022-12-25T19:48:55.132Z,6.93
2022-12-25T19:51:28.995Z,6.27
2022-12-25T19:53:57.167Z,5.73
2022-12-25T19:56:27.222Z,6.40
2022-12-25T19:58:55.832Z,6.10
2022-12-25T20:01:26.689Z,6.03
2022-12-25T20:03:55.169Z,6.50
2022-12-25T20:06:32.985Z,5.80
2022-12-25T20:09:15.291Z,6.03
2022-12-25T20:11:43.688Z,6.17
2022-12-25T20:14:16.416Z,5.90
2022-12-25T20:16:50.624Z,6.23
2022-12-25T20:19:17.963Z,5.93
2022-12-25T20:21:46.001Z,5.80
2022-12-25T20:24:13.194Z,6.00
2022-12-25T20:26:42.879Z,5.17
2022-12-25T20:29:15.413Z,5.53
2022-12-25T20:31:42.766Z,5.33
2022-12-25T20:34:12.300Z,5.47
2022-12-25T20:36:40.064Z,5.70
2022-12-25T20:39:10.188Z,5.27
2022-12-25T20:41:40.602Z,5.13
2022-12-25T20:44:10.450Z,5.10
2022-12-25T20:46:38.129Z,5.50
2022-12-25T20:49:06.445Z,5.50
2022-12-25T20:51:33.991Z,5.83
2022-12-25T20:54:05.414Z,5.83
2022-12-25T20:56:32.585Z,5.37
2022-12-25T20:59:01.578Z,5.80
2022-12-25T21:01:31.133Z,5.53
2022-12-25T21:04:01.400Z,6.20
2022-12-25T21:06:28.871Z,5.37
2022-12-25T21:08:56.711Z,5.63
2022-12-25T21:11:30.268Z,5.63
2022-12-25T21:13:58.829Z,5.37
2022-12-25T21:16:26.445Z,5.70
2022-12-25T21:18:55.310Z,5.77
2022-12-25T21:24:14.624Z,5.87
2022-12-25T21:26:47.830Z,5.37
2022-12-25T21:29:16.220Z,6.00
2022-12-25T21:32:02.194Z,5.43
2022-12-25T21:34:30.953Z,5.73
2022-12-25T21:37:04.505Z,5.67
2022-12-25T21:39:31.942Z,6.00
2022-12-25T21:41:59.627Z,5.73
2022-12-25T21:44:29.056Z,5.80
2022-12-25T21:46:57.977Z,5.60
2022-12-25T21:49:43.757Z,5.73
2022-12-25T21:52:11.569Z,6.00
2022-12-25T21:54:38.807Z,5.83
2022-12-25T21:57:06.144Z,6.17
2022-12-25T21:59:36.443Z,6.33
2022-12-25T22:02:11.709Z,6.03
2022-12-25T22:04:39.452Z,5.33
2022-12-25T22:07:18.786Z,5.70
2022-12-25T22:09:51.417Z,5.50
2022-12-25T22:12:39.730Z,6.47
2022-12-25T22:15:10.195Z,5.63
2022-12-25T22:17:59.324Z,5.97
2022-12-25T22:20:36.147Z,5.67
2022-12-25T22:23:06.342Z,5.20
2022-12-25T22:25:33.505Z,5.43
2022-12-25T22:28:00.788Z,5.77
2022-12-25T22:30:29.515Z,5.27
2022-12-25T22:32:57.742Z,5.40
2022-12-25T22:35:25.313Z,5.30
2022-12-25T22:37:54.171Z,5.20
2022-12-25T22:40:24.416Z,4.83
2022-12-25T22:42:59.439Z,5.60
2022-12-25T22:45:26.639Z,5.93
2022-12-25T22:47:53.904Z,5.70
2022-12-25T22:50:21.195Z,4.93
2022-12-25T22:52:48.503Z,5.43
2022-12-25T22:55:19.328Z,4.70
2022-12-25T22:57:46.862Z,4.70
2022-12-25T23:00:14.650Z,4.77
2022-12-25T23:02:42.127Z,4.87
2022-12-25T23:05:09.786Z,4.93
2022-12-25T23:07:37.112Z,4.83
2022-12-25T23:10:06.747Z,4.70
2022-12-25T23:12:52.765Z,4.50
2022-12-25T23:15:19.997Z,4.50
2022-12-25T23:18:08.191Z,4.20
2022-12-25T23:20:55.158Z,4.03
2022-12-25T23:23:41.022Z,4.27
2022-12-25T23:26:08.556Z,4.20
2022-12-25T23:29:02.778Z,4.27
2022-12-25T23:31:34.740Z,4.33
2022-12-25T23:34:03.503Z,4.20
2022-12-25T23:36:31.341Z,3.80
2022-12-25T23:39:04.695Z,3.93
2022-12-25T23:41:34.341Z,4.10
2022-12-25T23:44:01.908Z,4.00
2022-12-25T23:46:29.211Z,3.90
2022-12-25T23:48:56.661Z,3.80
2022-12-25T23:51:23.921Z,3.97
2022-12-25T23:53:51.396Z,3.97
2022-12-25T23:56:18.641Z,4.03
2022-12-25T23:58:51.721Z,4.20
